createdAt,value
2018-03-24T00:00:16.263Z,99.99
2018-03-24T00:01:01.620Z,99.99
2018-03-24T00:02:01.635Z,99.99
2018-03-24T00:03:01.665Z,99.99
2018-03-24T00:04:01.675Z,99.99
2018-03-24T00:05:01.420Z,99.99
2018-03-24T00:06:01.695Z,99.99
2018-03-24T00:09:01.741Z,99.99
2018-03-24T00:10:01.756Z,99.99
2018-03-24T00:11:01.771Z,99.99
2018-03-24T00:12:01.526Z,99.99
2018-03-24T00:13:01.803Z,99.99
2018-03-24T00:14:01.816Z,99.99
2018-03-24T00:15:16.489Z,99.99
2018-03-24T00:16:01.849Z,99.99
2018-03-24T00:17:01.860Z,99.99
2018-03-24T00:18:01.876Z,99.99
2018-03-24T00:19:01.896Z,99.99
2018-03-24T00:20:01.905Z,99.99
2018-03-24T00:21:01.922Z,99.99
2018-03-24T00:22:01.676Z,99.99
2018-03-24T00:23:01.954Z,99.99
2018-03-24T00:26:01.996Z,99.99
2018-03-24T00:27:02.014Z,99.99
2018-03-24T00:28:02.023Z,99.99
2018-03-24T00:29:02.040Z,99.99
2018-03-24T00:30:02.057Z,99.99
2018-03-24T00:31:02.069Z,99.99
2018-03-24T00:32:01.829Z,99.99
2018-03-24T00:34:02.114Z,99.99
2018-03-24T00:35:02.129Z,99.99
2018-03-24T00:36:02.148Z,99.99
2018-03-24T00:37:02.159Z,99.99
2018-03-24T00:38:02.174Z,99.99
2018-03-24T00:39:01.929Z,99.99
2018-03-24T00:41:02.223Z,99.99
2018-03-24T00:42:02.236Z,99.99
2018-03-24T00:43:02.042Z,99.99
2018-03-24T00:44:02.269Z,99.99
2018-03-24T00:45:02.287Z,99.99
2018-03-24T00:46:02.293Z,99.99
2018-03-24T00:47:16.966Z,99.99
2018-03-24T00:48:02.327Z,99.99
2018-03-24T00:49:02.338Z,99.99
2018-03-24T00:50:02.352Z,99.99
2018-03-24T00:51:02.370Z,99.99
2018-03-24T00:52:02.391Z,99.99
2018-03-24T00:53:02.404Z,99.99
2018-03-24T00:54:02.432Z,99.99
2018-03-24T00:55:02.178Z,99.99
2018-03-24T00:56:02.468Z,99.99
2018-03-24T00:57:02.518Z,99.99
2018-03-24T00:58:02.477Z,99.99
2018-03-24T00:59:02.493Z,99.99
2018-03-24T01:00:02.243Z,99.99
2018-03-24T01:01:02.257Z,99.99
2018-03-24T01:02:02.538Z,99.99
2018-03-24T01:03:17.206Z,99.99
2018-03-24T01:04:02.303Z,99.99
2018-03-24T01:05:02.316Z,99.99
2018-03-24T01:07:02.611Z,99.99
2018-03-24T01:08:02.619Z,99.99
2018-03-24T01:09:02.634Z,99.99
2018-03-24T01:11:02.406Z,99.99
2018-03-24T01:12:02.679Z,99.99
2018-03-24T01:13:02.705Z,99.99
2018-03-24T01:14:02.709Z,99.99
2018-03-24T01:15:02.725Z,99.99
2018-03-24T01:16:02.739Z,99.99
2018-03-24T01:17:02.495Z,99.99
2018-03-24T01:18:02.769Z,99.99
2018-03-24T01:19:17.440Z,99.99
2018-03-24T01:20:02.799Z,99.99
2018-03-24T01:21:02.813Z,99.99
2018-03-24T01:22:02.828Z,99.99
2018-03-24T01:25:02.873Z,99.99
2018-03-24T01:26:02.889Z,99.99
2018-03-24T01:27:02.900Z,99.99
2018-03-24T01:28:02.916Z,99.99
2018-03-24T01:30:02.956Z,99.99
2018-03-24T01:31:02.963Z,99.99
2018-03-24T01:32:02.718Z,99.99
2018-03-24T01:33:02.989Z,99.99
2018-03-24T01:34:03.065Z,99.99
2018-03-24T01:35:17.677Z,99.99
2018-03-24T01:36:03.033Z,99.99
2018-03-24T01:37:03.049Z,99.99
2018-03-24T01:38:03.072Z,99.99
2018-03-24T01:39:03.078Z,99.99
2018-03-24T01:40:03.092Z,99.99
2018-03-24T01:41:02.854Z,99.99
2018-03-24T01:42:02.864Z,99.99
2018-03-24T01:43:03.145Z,99.99
2018-03-24T01:44:03.253Z,99.99
2018-03-24T01:45:02.907Z,99.99
2018-03-24T01:46:02.922Z,99.99
2018-03-24T01:47:02.938Z,99.99
2018-03-24T01:48:03.214Z,99.99
2018-03-24T01:49:02.969Z,99.99
2018-03-24T01:50:17.900Z,99.99
2018-03-24T01:51:02.997Z,99.99
2018-03-24T01:52:03.370Z,99.99
2018-03-24T01:53:03.287Z,99.99
2018-03-24T01:54:03.048Z,99.99
2018-03-24T01:55:03.319Z,99.99
2018-03-24T01:56:03.329Z,99.99
2018-03-24T01:57:03.343Z,99.99
2018-03-24T01:58:03.102Z,99.99
2018-03-24T01:59:03.375Z,99.99
2018-03-24T02:01:03.406Z,99.99
2018-03-24T02:02:03.164Z,99.99
2018-03-24T02:03:03.442Z,99.99
2018-03-24T02:04:03.451Z,99.99
2018-03-24T02:05:03.465Z,99.99
2018-03-24T02:06:03.478Z,99.99
2018-03-24T02:07:03.492Z,99.99
2018-03-24T02:08:03.508Z,99.99
2018-03-24T02:09:03.535Z,99.99
2018-03-24T02:10:03.538Z,99.99
2018-03-24T02:12:03.568Z,99.99
2018-03-24T02:13:03.584Z,99.99
2018-03-24T02:14:03.599Z,99.99
2018-03-24T02:15:03.350Z,99.99
2018-03-24T02:16:03.628Z,99.99
2018-03-24T02:17:03.383Z,99.99
2018-03-24T02:18:03.660Z,99.99
2018-03-24T02:19:03.412Z,99.99
2018-03-24T02:20:03.705Z,99.99
2018-03-24T02:21:03.440Z,99.99
2018-03-24T02:22:18.372Z,99.99
2018-03-24T02:23:03.471Z,99.99
2018-03-24T02:24:03.747Z,99.99
2018-03-24T02:25:03.760Z,99.99
2018-03-24T02:26:03.776Z,99.99
2018-03-24T02:27:03.790Z,99.99
2018-03-24T02:28:03.804Z,99.99
2018-03-24T02:29:03.818Z,99.99
2018-03-24T02:30:03.844Z,99.99
2018-03-24T02:31:03.598Z,99.99
2018-03-24T02:32:03.874Z,99.99
2018-03-24T02:34:03.897Z,99.99
2018-03-24T02:35:03.649Z,99.99
2018-03-24T02:36:04.032Z,99.99
2018-03-24T02:37:03.678Z,99.99
2018-03-24T02:38:18.621Z,99.99
2018-03-24T02:39:03.985Z,99.99
2018-03-24T02:40:03.985Z,99.99
2018-03-24T02:41:04.002Z,99.99
2018-03-24T02:42:03.752Z,99.99
2018-03-24T02:43:04.027Z,99.99
2018-03-24T02:44:03.782Z,99.99
2018-03-24T02:45:04.071Z,99.99
2018-03-24T02:46:04.077Z,99.99
2018-03-24T02:47:04.086Z,99.99
2018-03-24T02:48:04.112Z,99.99
2018-03-24T02:49:03.859Z,99.99
2018-03-24T02:50:03.874Z,99.99
2018-03-24T02:51:03.893Z,99.99
2018-03-24T02:53:03.918Z,99.99
2018-03-24T02:54:18.847Z,99.99
2018-03-24T02:55:03.944Z,99.99
2018-03-24T02:56:03.960Z,99.99
2018-03-24T02:57:04.234Z,99.99
2018-03-24T02:58:03.989Z,99.99
2018-03-24T02:59:04.271Z,99.99
2018-03-24T03:00:04.282Z,99.99
2018-03-24T03:01:04.292Z,99.99
2018-03-24T03:02:04.319Z,99.99
2018-03-24T03:03:04.063Z,99.99
2018-03-24T03:04:04.079Z,99.99
2018-03-24T03:06:04.107Z,99.99
2018-03-24T03:07:04.383Z,99.99
2018-03-24T03:08:04.137Z,99.99
2018-03-24T03:09:04.424Z,99.99
2018-03-24T03:10:19.083Z,99.99
2018-03-24T03:11:04.181Z,99.99
2018-03-24T03:12:04.456Z,99.99
2018-03-24T03:13:04.468Z,99.99
2018-03-24T03:14:04.490Z,99.99
2018-03-24T03:15:04.240Z,99.99
2018-03-24T03:16:04.254Z,99.99
2018-03-24T03:18:04.545Z,99.99
2018-03-24T03:19:04.558Z,99.99
2018-03-24T03:20:04.572Z,99.99
2018-03-24T03:21:04.586Z,99.99
2018-03-24T03:22:04.608Z,99.99
2018-03-24T03:23:04.617Z,99.99
2018-03-24T03:24:04.372Z,99.99
2018-03-24T03:25:19.304Z,99.99
2018-03-24T03:26:04.402Z,99.99
2018-03-24T03:27:04.707Z,99.99
2018-03-24T03:28:04.464Z,99.99
2018-03-24T03:29:04.445Z,99.99
2018-03-24T03:30:04.721Z,99.99
2018-03-24T03:31:04.476Z,99.99
2018-03-24T03:33:04.544Z,99.99
2018-03-24T03:34:04.519Z,99.99
2018-03-24T03:35:04.795Z,99.99
2018-03-24T03:36:04.549Z,99.99
2018-03-24T03:37:04.823Z,99.99
2018-03-24T03:38:04.578Z,99.99
2018-03-24T03:39:04.603Z,99.99
2018-03-24T03:40:04.868Z,99.99
2018-03-24T03:41:04.888Z,99.99
2018-03-24T03:42:04.896Z,99.99
2018-03-24T03:43:04.914Z,99.99
2018-03-24T03:44:04.932Z,99.99
2018-03-24T03:45:04.939Z,99.99
2018-03-24T03:46:04.696Z,99.99
2018-03-24T03:47:04.711Z,99.99
2018-03-24T03:48:04.726Z,99.99
2018-03-24T03:49:05.001Z,99.99
2018-03-24T03:50:04.755Z,99.99
2018-03-24T03:52:05.048Z,99.99
2018-03-24T03:53:04.800Z,99.99
2018-03-24T03:54:05.073Z,99.99
2018-03-24T03:55:05.089Z,99.99
2018-03-24T03:56:05.106Z,99.99
2018-03-24T03:57:19.775Z,99.99
2018-03-24T03:58:05.132Z,99.99
2018-03-24T03:59:05.147Z,99.99
2018-03-24T04:00:04.902Z,99.99
2018-03-24T04:02:05.191Z,99.99
2018-03-24T04:03:05.213Z,99.99
2018-03-24T04:04:05.218Z,99.99
2018-03-24T04:05:04.976Z,99.99
2018-03-24T04:06:04.990Z,99.99
2018-03-24T04:07:05.263Z,99.99
2018-03-24T04:08:05.279Z,99.99
2018-03-24T04:09:05.035Z,99.99
2018-03-24T04:10:05.311Z,99.99
2018-03-24T04:11:05.063Z,99.99
2018-03-24T04:12:05.078Z,99.99
2018-03-24T04:13:20.011Z,99.99
2018-03-24T04:14:05.368Z,99.99
2018-03-24T04:15:05.384Z,99.99
2018-03-24T04:16:05.137Z,99.99
2018-03-24T04:17:05.414Z,99.99
2018-03-24T04:18:05.436Z,99.99
2018-03-24T04:19:05.181Z,99.99
2018-03-24T04:21:05.212Z,99.99
2018-03-24T04:22:05.486Z,99.99
2018-03-24T04:23:05.511Z,99.99
2018-03-24T04:24:05.518Z,99.99
2018-03-24T04:25:05.271Z,99.99
2018-03-24T04:26:05.544Z,99.99
2018-03-24T04:27:05.558Z,99.99
2018-03-24T04:28:05.574Z,99.99
2018-03-24T04:29:20.250Z,99.99
2018-03-24T04:30:05.603Z,99.99
2018-03-24T04:31:05.359Z,99.99
2018-03-24T04:32:05.633Z,99.99
2018-03-24T04:33:05.647Z,99.99
2018-03-24T04:34:05.404Z,99.99
2018-03-24T04:35:05.687Z,99.99
2018-03-24T04:36:05.432Z,99.99
2018-03-24T04:37:05.706Z,99.99
2018-03-24T04:38:05.462Z,99.99
2018-03-24T04:39:05.733Z,99.99
2018-03-24T04:40:05.494Z,99.99
2018-03-24T04:41:05.765Z,99.99
2018-03-24T04:42:05.520Z,99.99
2018-03-24T04:43:05.793Z,99.99
2018-03-24T04:44:05.549Z,99.99
2018-03-24T04:45:20.482Z,99.99
2018-03-24T04:46:05.839Z,99.99
2018-03-24T04:47:05.853Z,99.99
2018-03-24T04:48:05.869Z,99.99
2018-03-24T04:49:05.893Z,99.99
2018-03-24T04:50:05.896Z,99.99
2018-03-24T04:51:05.910Z,99.99
2018-03-24T04:53:05.942Z,99.99
2018-03-24T04:54:05.700Z,99.99
2018-03-24T04:55:05.716Z,99.99
2018-03-24T04:56:05.987Z,99.99
2018-03-24T04:57:05.997Z,99.99
2018-03-24T04:58:06.020Z,99.99
2018-03-24T04:59:05.770Z,99.99
2018-03-24T05:00:20.702Z,99.99
2018-03-24T05:01:06.060Z,99.99
2018-03-24T05:02:05.814Z,99.99
2018-03-24T05:03:06.085Z,99.99
2018-03-24T05:05:05.859Z,99.99
2018-03-24T05:06:06.130Z,99.99
2018-03-24T05:07:06.144Z,99.99
2018-03-24T05:09:06.178Z,99.99
2018-03-24T05:10:06.197Z,99.99
2018-03-24T05:11:06.205Z,99.99
2018-03-24T05:12:06.221Z,99.99
2018-03-24T05:13:06.236Z,99.99
2018-03-24T05:14:06.248Z,99.99
2018-03-24T05:15:06.264Z,99.99
2018-03-24T05:16:06.289Z,99.99
2018-03-24T05:17:06.291Z,99.99
2018-03-24T05:18:06.308Z,99.99
2018-03-24T05:19:06.322Z,99.99
2018-03-24T05:20:06.342Z,99.99
2018-03-24T05:21:06.092Z,99.99
2018-03-24T05:22:06.365Z,99.99
2018-03-24T05:23:06.388Z,99.99
2018-03-24T05:25:06.412Z,99.99
2018-03-24T05:27:06.448Z,99.99
2018-03-24T05:28:06.456Z,99.99
2018-03-24T05:29:06.476Z,99.99
2018-03-24T05:30:06.502Z,99.99
2018-03-24T05:31:06.497Z,99.99
2018-03-24T05:32:21.171Z,99.99
2018-03-24T05:33:06.527Z,99.99
2018-03-24T05:34:06.544Z,99.99
2018-03-24T05:35:06.557Z,99.99
2018-03-24T05:36:06.313Z,99.99
2018-03-24T05:37:06.588Z,99.99
2018-03-24T05:38:06.702Z,99.99
2018-03-24T05:39:06.695Z,99.99
2018-03-24T05:41:06.648Z,99.99
2018-03-24T05:42:06.666Z,99.99
2018-03-24T05:43:06.674Z,99.99
2018-03-24T05:44:06.430Z,99.99
2018-03-24T05:45:06.704Z,99.99
2018-03-24T05:46:06.459Z,99.99
2018-03-24T05:47:06.731Z,99.99
2018-03-24T05:48:21.406Z,99.99
2018-03-24T05:49:06.762Z,99.99
2018-03-24T05:50:06.778Z,99.99
2018-03-24T05:51:06.802Z,99.99
2018-03-24T05:52:06.806Z,99.99
2018-03-24T05:53:06.830Z,99.99
2018-03-24T05:56:06.868Z,99.99
2018-03-24T05:58:06.895Z,99.99
2018-03-24T05:59:06.909Z,99.99
2018-03-24T06:00:06.667Z,99.99
2018-03-24T06:01:06.680Z,99.99
2018-03-24T06:02:06.968Z,99.99
2018-03-24T06:03:06.711Z,99.99
2018-03-24T06:04:21.647Z,99.99
2018-03-24T06:05:07.002Z,99.99
2018-03-24T06:06:07.014Z,99.99
2018-03-24T06:07:07.028Z,99.99
2018-03-24T06:08:06.783Z,99.99
2018-03-24T06:09:06.799Z,99.99
2018-03-24T06:10:06.814Z,99.99
2018-03-24T06:11:06.829Z,99.99
2018-03-24T06:12:07.107Z,99.99
2018-03-24T06:13:07.117Z,99.99
2018-03-24T06:14:07.139Z,99.99
2018-03-24T06:15:07.152Z,99.99
2018-03-24T06:16:07.171Z,99.99
2018-03-24T06:17:07.178Z,99.99
2018-03-24T06:18:07.192Z,99.99
2018-03-24T06:19:06.947Z,99.99
2018-03-24T06:20:21.879Z,99.99
2018-03-24T06:21:07.238Z,99.99
2018-03-24T06:22:07.324Z,99.99
2018-03-24T06:23:07.266Z,99.99
2018-03-24T06:24:07.281Z,99.99
2018-03-24T06:25:07.296Z,99.99
2018-03-24T06:26:07.051Z,99.99
2018-03-24T06:27:07.329Z,99.99
2018-03-24T06:29:07.356Z,99.99
2018-03-24T06:30:07.370Z,99.99
2018-03-24T06:31:07.387Z,99.99
2018-03-24T06:32:07.400Z,99.99
2018-03-24T06:33:07.415Z,99.99
2018-03-24T06:34:07.431Z,99.99
2018-03-24T06:35:22.104Z,99.99
2018-03-24T06:36:07.466Z,99.99
2018-03-24T06:37:07.477Z,99.99
2018-03-24T06:38:07.542Z,99.99
2018-03-24T06:39:07.506Z,99.99
2018-03-24T06:40:07.521Z,99.99
2018-03-24T06:41:07.535Z,99.99
2018-03-24T06:42:07.292Z,99.99
2018-03-24T06:43:07.567Z,99.99
2018-03-24T06:44:07.320Z,99.99
2018-03-24T06:45:07.595Z,99.99
2018-03-24T06:46:07.373Z,99.99
2018-03-24T06:47:07.633Z,99.99
2018-03-24T06:48:07.655Z,99.99
2018-03-24T06:49:07.657Z,99.99
2018-03-24T06:50:07.670Z,99.99
2018-03-24T06:51:07.686Z,99.99
2018-03-24T06:52:07.542Z,99.99
2018-03-24T06:53:07.716Z,99.99
2018-03-24T06:54:07.731Z,99.99
2018-03-24T06:55:07.487Z,99.99
2018-03-24T06:56:07.504Z,99.96
2018-03-24T06:57:07.777Z,99.99
2018-03-24T06:58:07.533Z,99.58
2018-03-24T06:59:07.809Z,99.82
2018-03-24T07:00:07.822Z,99.63
2018-03-24T07:01:07.838Z,99.44
2018-03-24T07:02:07.854Z,99.53
2018-03-24T07:03:07.612Z,98.96
2018-03-24T07:04:07.884Z,99.06
2018-03-24T07:05:07.906Z,99.06
2018-03-24T07:06:07.917Z,99.15
2018-03-24T07:07:22.587Z,98.39
2018-03-24T07:08:07.685Z,98.3
2018-03-24T07:09:07.961Z,98.68
2018-03-24T07:10:07.715Z,98.77
2018-03-24T07:11:07.989Z,99.15
2018-03-24T07:12:08.006Z,98.68
2018-03-24T07:13:08.025Z,98.3
2018-03-24T07:14:08.037Z,98.58
2018-03-24T07:16:08.069Z,98.39
2018-03-24T07:17:08.082Z,97.64
2018-03-24T07:18:08.097Z,97.73
2018-03-24T07:19:08.112Z,97.92
2018-03-24T07:20:08.131Z,98.3
2018-03-24T07:21:08.142Z,98.21
2018-03-24T07:22:07.899Z,97.54
2018-03-24T07:23:22.832Z,98.21
2018-03-24T07:24:08.190Z,98.11
2018-03-24T07:25:08.206Z,98.39
2018-03-24T07:26:08.223Z,98.21
2018-03-24T07:27:07.976Z,97.83
2018-03-24T07:28:07.993Z,97.92
2018-03-24T07:29:08.007Z,97.64
2018-03-24T07:30:08.285Z,97.45
2018-03-24T07:31:08.297Z,96.78
2018-03-24T07:32:08.314Z,96.78
2018-03-24T07:33:08.329Z,97.16
2018-03-24T07:34:08.347Z,97.07
2018-03-24T07:35:08.357Z,96.88
2018-03-24T07:36:08.114Z,96.78
2018-03-24T07:37:08.389Z,96.78
2018-03-24T07:38:08.406Z,96.59
2018-03-24T07:39:23.078Z,96.31
2018-03-24T07:40:08.442Z,95.93
2018-03-24T07:41:08.457Z,95.93
2018-03-24T07:42:08.467Z,95.93
2018-03-24T07:43:08.224Z,95.17
2018-03-24T07:44:08.498Z,95.93
2018-03-24T07:46:08.532Z,95.36
2018-03-24T07:47:08.544Z,96.03
2018-03-24T07:49:08.584Z,95.26
2018-03-24T07:50:08.591Z,94.93
2018-03-24T07:51:08.609Z,95.03
2018-03-24T07:52:08.362Z,94.65
2018-03-24T07:53:08.646Z,94.56
2018-03-24T07:54:08.656Z,94.46
2018-03-24T07:55:23.328Z,94.56
2018-03-24T07:56:08.687Z,94.37
2018-03-24T07:57:08.705Z,94.27
2018-03-24T07:58:08.722Z,95.03
2018-03-24T07:59:08.735Z,94.65
2018-03-24T08:00:08.491Z,94.37
2018-03-24T08:02:08.791Z,93.8
2018-03-24T08:03:08.797Z,93.61
2018-03-24T08:04:08.917Z,93.13
2018-03-24T08:05:08.831Z,93.13
2018-03-24T08:06:08.846Z,93.41
2018-03-24T08:07:08.860Z,94.46
2018-03-24T08:08:08.879Z,93.13
2018-03-24T08:09:08.897Z,93.61
2018-03-24T08:10:23.566Z,93.51
2018-03-24T08:11:08.924Z,94.08
2018-03-24T08:12:08.680Z,93.41
2018-03-24T08:13:08.696Z,92.47
2018-03-24T08:14:08.713Z,92.38
2018-03-24T08:15:08.996Z,91.71
2018-03-24T08:16:09.009Z,92.18
2018-03-24T08:17:09.019Z,91.42
2018-03-24T08:18:09.037Z,91.99
2018-03-24T08:19:09.052Z,92.28
2018-03-24T08:20:09.069Z,91.8
2018-03-24T08:21:09.084Z,91.24
2018-03-24T08:22:08.842Z,91.28
2018-03-24T08:23:09.120Z,90.9
2018-03-24T08:24:09.134Z,90.52
2018-03-24T08:25:09.149Z,90.43
2018-03-24T08:26:08.912Z,89.86
2018-03-24T08:27:09.180Z,90.14
2018-03-24T08:28:09.197Z,89.86
2018-03-24T08:29:09.212Z,89.48
2018-03-24T08:30:08.984Z,89.58
2018-03-24T08:31:09.247Z,89.67
2018-03-24T08:32:09.265Z,89.67
2018-03-24T08:34:09.293Z,89.58
2018-03-24T08:35:09.322Z,89
2018-03-24T08:36:09.333Z,88.91
2018-03-24T08:37:09.343Z,89
2018-03-24T08:38:09.359Z,89.2
2018-03-24T08:39:09.379Z,87.96
2018-03-24T08:40:09.398Z,88.06
2018-03-24T08:41:09.410Z,89
2018-03-24T08:42:24.085Z,88.72
2018-03-24T08:43:09.447Z,88.91
2018-03-24T08:44:09.459Z,88.15
2018-03-24T08:45:09.475Z,87.39
2018-03-24T08:46:09.495Z,86.91
2018-03-24T08:47:09.609Z,87.01
2018-03-24T08:48:09.533Z,86.91
2018-03-24T08:49:09.544Z,87.39
2018-03-24T08:50:09.348Z,87.01
2018-03-24T08:51:09.578Z,87.3
2018-03-24T08:52:09.594Z,86.54
2018-03-24T08:53:09.349Z,87.01
2018-03-24T08:54:09.626Z,86.72
2018-03-24T08:55:09.383Z,87.43
2018-03-24T08:56:09.657Z,86.77
2018-03-24T08:57:09.677Z,86.39
2018-03-24T08:58:24.350Z,86.3
2018-03-24T08:59:09.708Z,85.91
2018-03-24T09:00:09.728Z,85.25
2018-03-24T09:01:09.742Z,85.44
2018-03-24T09:02:09.768Z,85.49
2018-03-24T09:03:09.516Z,86.2
2018-03-24T09:04:09.538Z,86.2
2018-03-24T09:06:09.826Z,86.3
2018-03-24T09:07:09.583Z,86.01
2018-03-24T09:08:09.861Z,85.06
2018-03-24T09:09:09.876Z,84.87
2018-03-24T09:10:09.893Z,84.78
2018-03-24T09:11:09.909Z,84.87
2018-03-24T09:12:09.931Z,84.49
2018-03-24T09:13:09.949Z,84.78
2018-03-24T09:14:24.618Z,84.21
2018-03-24T09:15:10.070Z,83.54
2018-03-24T09:16:09.996Z,83.64
2018-03-24T09:17:09.753Z,83.92
2018-03-24T09:19:10.046Z,83.64
2018-03-24T09:23:10.113Z,84.68
2018-03-24T09:24:10.132Z,85.35
2018-03-24T09:25:10.145Z,85.35
2018-03-24T09:26:10.164Z,84.87
2018-03-24T09:27:10.181Z,84.21
2018-03-24T09:28:10.202Z,83.54
2018-03-24T09:29:10.214Z,83.45
2018-03-24T09:30:24.891Z,83.59
2018-03-24T09:31:10.251Z,83.59
2018-03-24T09:32:10.271Z,83.87
2018-03-24T09:33:10.025Z,82.92
2018-03-24T09:34:10.043Z,83.3
2018-03-24T09:36:10.345Z,82.59
2018-03-24T09:37:10.092Z,82.69
2018-03-24T09:38:10.372Z,82.82
2018-03-24T09:39:10.129Z,83.26
2018-03-24T09:41:10.429Z,83.36
2018-03-24T09:42:10.440Z,82.97
2018-03-24T09:43:10.461Z,83.45
2018-03-24T09:44:10.476Z,82.88
2018-03-24T09:45:25.151Z,82.31
2018-03-24T09:46:10.521Z,83.01
2018-03-24T09:47:10.533Z,83.39
2018-03-24T09:48:10.553Z,83.01
2018-03-24T09:49:10.303Z,82.82
2018-03-24T09:50:10.584Z,82.92
2018-03-24T09:51:10.596Z,82.54
2018-03-24T09:52:10.368Z,82.35
2018-03-24T09:55:10.664Z,83.2
2018-03-24T09:56:10.684Z,82.82
2018-03-24T09:57:10.700Z,83.39
2018-03-24T09:58:10.823Z,83.2
2018-03-24T09:59:10.737Z,83.2
2018-03-24T10:00:10.495Z,82.73
2018-03-24T10:01:10.771Z,82.92
2018-03-24T10:02:10.788Z,82.1
2018-03-24T10:03:10.806Z,80.87
2018-03-24T10:04:10.563Z,81.25
2018-03-24T10:05:10.843Z,81.54
2018-03-24T10:06:10.859Z,82.01
2018-03-24T10:08:10.904Z,81.29
2018-03-24T10:09:10.916Z,81.2
2018-03-24T10:10:10.676Z,80.91
2018-03-24T10:11:10.948Z,79.3
2018-03-24T10:12:10.973Z,78.16
2018-03-24T10:13:10.984Z,78.25
2018-03-24T10:14:11.002Z,78.63
2018-03-24T10:15:11.023Z,79.01
2018-03-24T10:16:10.780Z,80.44
2018-03-24T10:17:25.716Z,79.58
2018-03-24T10:18:10.817Z,79.86
2018-03-24T10:19:11.093Z,80.05
2018-03-24T10:20:11.111Z,78.44
2018-03-24T10:21:10.872Z,78.06
2018-03-24T10:22:10.890Z,78.06
2018-03-24T10:23:11.174Z,79.2
2018-03-24T10:25:11.204Z,78.19
2018-03-24T10:28:11.260Z,77.3
2018-03-24T10:29:11.284Z,77.3
2018-03-24T10:30:11.297Z,77.2
2018-03-24T10:31:11.055Z,77.15
2018-03-24T10:32:11.336Z,76.86
2018-03-24T10:33:26.014Z,75.87
2018-03-24T10:34:11.377Z,76.01
2018-03-24T10:35:11.393Z,76.01
2018-03-24T10:36:11.408Z,76.63
2018-03-24T10:37:11.433Z,76.54
2018-03-24T10:38:11.449Z,76.35
2018-03-24T10:43:11.541Z,76.1
2018-03-24T10:44:11.303Z,75.53
2018-03-24T10:45:11.586Z,75.62
2018-03-24T10:46:11.599Z,75.15
2018-03-24T10:47:11.617Z,74.29
2018-03-24T10:48:11.652Z,74.29
2018-03-24T10:49:26.314Z,74.58
2018-03-24T10:50:11.676Z,73.91
2018-03-24T10:51:11.436Z,73.63
2018-03-24T10:52:11.718Z,73.53
2018-03-24T10:53:11.477Z,73.72
2018-03-24T10:54:11.756Z,74.2
2018-03-24T10:55:11.774Z,74.01
2018-03-24T10:56:11.790Z,74.58
2018-03-24T10:58:11.828Z,74.35
2018-03-24T10:59:11.847Z,75.21
2018-03-24T11:00:11.870Z,74.96
2018-03-24T11:01:11.886Z,74.92
2018-03-24T11:02:11.903Z,75.21
2018-03-24T11:03:11.920Z,75.02
2018-03-24T11:04:11.970Z,75.4
2018-03-24T11:05:26.617Z,75.11
2018-03-24T11:06:11.978Z,75.11
2018-03-24T11:07:11.998Z,74.63
2018-03-24T11:08:11.757Z,75.02
2018-03-24T11:09:12.034Z,75.59
2018-03-24T11:10:12.053Z,75.49
2018-03-24T11:11:12.074Z,75.15
2018-03-24T11:12:12.091Z,75.87
2018-03-24T11:13:12.120Z,75.78
2018-03-24T11:14:12.126Z,75.43
2018-03-24T11:15:11.891Z,74.73
2018-03-24T11:16:11.906Z,74.54
2018-03-24T11:17:12.185Z,75.59
2018-03-24T11:18:11.944Z,75.78
2018-03-24T11:19:12.222Z,75.11
2018-03-24T11:20:26.900Z,75.68
2018-03-24T11:21:12.264Z,75.49
2018-03-24T11:22:12.278Z,75.78
2018-03-24T11:23:12.297Z,75.87
2018-03-24T11:24:12.316Z,75.87
2018-03-24T11:25:12.077Z,75.3
2018-03-24T11:26:12.355Z,75.02
2018-03-24T11:27:12.371Z,75.02
2018-03-24T11:28:12.391Z,75.21
2018-03-24T11:29:12.409Z,75.78
2018-03-24T11:31:12.446Z,75.02
2018-03-24T11:32:12.468Z,74.82
2018-03-24T11:33:12.483Z,76.44
2018-03-24T11:34:12.509Z,75.4
2018-03-24T11:35:12.519Z,74.92
2018-03-24T11:36:12.542Z,74.39
2018-03-24T11:37:12.298Z,74.58
2018-03-24T11:38:12.318Z,73.88
2018-03-24T11:39:12.611Z,74.16
2018-03-24T11:40:12.354Z,73.49
2018-03-24T11:41:12.640Z,73.78
2018-03-24T11:42:12.659Z,73.49
2018-03-24T11:43:12.669Z,73.4
2018-03-24T11:45:12.706Z,72.64
2018-03-24T11:46:12.729Z,71.97
2018-03-24T11:47:12.746Z,71.88
2018-03-24T11:48:12.771Z,71.41
2018-03-24T11:49:12.782Z,72.26
2018-03-24T11:50:12.848Z,73.59
2018-03-24T11:51:12.873Z,72.74
2018-03-24T11:52:27.497Z,72.01
2018-03-24T11:53:12.857Z,72.2
2018-03-24T11:54:12.878Z,72.58
2018-03-24T11:56:12.980Z,71.72
2018-03-24T11:57:12.674Z,71.82
2018-03-24T11:58:12.692Z,71.53
2018-03-24T11:59:13.027Z,71.44
2018-03-24T12:01:13.008Z,71.53
2018-03-24T12:02:13.034Z,71.72
2018-03-24T12:03:12.787Z,71.25
2018-03-24T12:04:13.064Z,71.06
2018-03-24T12:05:13.083Z,71.57
2018-03-24T12:06:13.102Z,70.9
2018-03-24T12:07:13.123Z,71.76
2018-03-24T12:08:27.800Z,70.24
2018-03-24T12:09:13.161Z,69.67
2018-03-24T12:10:13.179Z,69.76
2018-03-24T12:11:13.199Z,69.57
2018-03-24T12:12:13.317Z,69
2018-03-24T12:13:12.992Z,68.9
2018-03-24T12:14:13.258Z,69.06
2018-03-24T12:15:13.017Z,69.19
2018-03-24T12:16:13.295Z,69.76
2018-03-24T12:17:13.062Z,69.38
2018-03-24T12:19:13.352Z,70.52
2018-03-24T12:20:13.371Z,69.23
2018-03-24T12:21:13.392Z,68.9
2018-03-24T12:22:13.514Z,68.81
2018-03-24T12:23:13.429Z,68.37
2018-03-24T12:24:28.108Z,67.51
2018-03-24T12:25:13.470Z,67.41
2018-03-24T12:26:13.229Z,67.7
2018-03-24T12:27:13.510Z,67.19
2018-03-24T12:29:13.568Z,67.86
2018-03-24T12:30:13.567Z,67.38
2018-03-24T12:31:13.332Z,68.24
2018-03-24T12:32:13.604Z,68.43
2018-03-24T12:33:13.625Z,68.33
2018-03-24T12:34:13.646Z,67.03
2018-03-24T12:35:13.665Z,66.75
2018-03-24T12:36:13.426Z,67.57
2018-03-24T12:37:13.708Z,67.38
2018-03-24T12:38:13.724Z,67.19
2018-03-24T12:39:13.744Z,67.19
2018-03-24T12:40:28.423Z,67.1
2018-03-24T12:41:13.783Z,67.86
2018-03-24T12:42:13.803Z,68.62
2018-03-24T12:43:13.924Z,68.46
2018-03-24T12:44:13.890Z,67.22
2018-03-24T12:45:13.867Z,68.08
2018-03-24T12:46:13.882Z,68.75
2018-03-24T12:47:13.900Z,67.64
2018-03-24T12:49:13.943Z,65.16
2018-03-24T12:50:13.969Z,65.7
2018-03-24T12:51:13.985Z,67.51
2018-03-24T12:52:13.743Z,67.26
2018-03-24T12:53:13.764Z,66.4
2018-03-24T12:54:14.045Z,65.16
2018-03-24T12:55:28.724Z,64.78
2018-03-24T12:56:14.085Z,64.78
2018-03-24T12:57:13.849Z,65.16
2018-03-24T12:58:14.124Z,64.78
2018-03-24T12:59:14.150Z,64.02
2018-03-24T13:00:14.165Z,64.02
2018-03-24T13:01:14.185Z,64.59
2018-03-24T13:02:14.204Z,65.8
2018-03-24T13:03:14.231Z,65.55
2018-03-24T13:04:14.249Z,65.07
2018-03-24T13:05:14.264Z,65.55
2018-03-24T13:06:14.028Z,65.07
2018-03-24T13:07:14.306Z,64.94
2018-03-24T13:08:14.326Z,65.7
2018-03-24T13:09:14.348Z,65.61
2018-03-24T13:10:14.369Z,65.51
2018-03-24T13:11:14.389Z,65.99
2018-03-24T13:12:14.416Z,65.99
2018-03-24T13:13:14.167Z,66.27
2018-03-24T13:14:14.459Z,66.91
2018-03-24T13:15:14.468Z,66.56
2018-03-24T13:16:14.489Z,66.75
2018-03-24T13:18:14.531Z,66.43
2018-03-24T13:19:14.546Z,66.24
2018-03-24T13:20:14.568Z,65.95
2018-03-24T13:21:14.596Z,67.16
2018-03-24T13:22:14.609Z,67.63
2018-03-24T13:23:14.629Z,68.4
2018-03-24T13:24:14.647Z,67.95
2018-03-24T13:25:14.669Z,66.43
2018-03-24T13:26:14.688Z,66.24
2018-03-24T13:27:29.378Z,66.33
2018-03-24T13:28:14.734Z,66.43
2018-03-24T13:29:14.749Z,67.1
2018-03-24T13:30:14.769Z,66.37
2018-03-24T13:31:14.532Z,66.46
2018-03-24T13:33:14.831Z,64.97
2018-03-24T13:34:14.865Z,65.32
2018-03-24T13:35:14.870Z,65.64
2018-03-24T13:36:14.896Z,65.26
2018-03-24T13:37:14.911Z,65.26
2018-03-24T13:38:14.931Z,65.07
2018-03-24T13:39:14.952Z,64.59
2018-03-24T13:40:14.974Z,64.59
2018-03-24T13:41:14.992Z,64.02
2018-03-24T13:42:15.012Z,63.83
2018-03-24T13:43:29.694Z,64.02
2018-03-24T13:44:15.069Z,64.59
2018-03-24T13:45:15.076Z,66.31
2018-03-24T13:46:14.837Z,64.78
2018-03-24T13:47:15.116Z,64.78
2018-03-24T13:48:15.133Z,65.07
2018-03-24T13:49:15.157Z,64.59
2018-03-24T13:50:15.180Z,64.21
2018-03-24T13:51:15.199Z,64.02
2018-03-24T13:52:14.957Z,64.18
2018-03-24T13:53:15.235Z,65.13
2018-03-24T13:54:15.260Z,65.61
2018-03-24T13:55:15.280Z,65.7
2018-03-24T13:56:15.298Z,65.23
2018-03-24T13:57:15.319Z,65.13